createdAt,value
2022-12-13T00:00:58.853Z,99308.06
2022-12-13T00:03:26.124Z,99306.94
2022-12-13T00:05:52.936Z,99299.03
2022-12-13T00:08:20.286Z,99294.88
2022-12-13T00:10:47.076Z,99293.41
2022-12-13T00:13:15.258Z,99291.03
2022-12-13T00:15:42.446Z,99287.50
2022-12-13T00:18:09.206Z,99288.34
2022-12-13T00:20:40.026Z,99284.19
2022-12-13T00:23:06.835Z,99280.50
2022-12-13T00:25:34.066Z,99279.47
2022-12-13T00:28:01.167Z,99277.78
2022-12-13T00:30:30.513Z,99263.28
2022-12-13T00:32:57.546Z,99279.94
2022-12-13T00:35:24.371Z,99280.59
2022-12-13T00:37:51.399Z,99273.56
2022-12-13T00:40:18.952Z,99267.91
2022-12-13T00:42:45.920Z,99269.03
2022-12-13T00:45:13.050Z,99271.78
2022-12-13T00:47:42.530Z,99268.03
2022-12-13T00:50:09.691Z,99274.75
2022-12-13T00:52:37.572Z,99280.56
2022-12-13T00:55:05.835Z,99266.66
2022-12-13T00:57:32.647Z,99270.81
2022-12-13T00:59:59.729Z,99261.50
2022-12-13T01:02:26.872Z,99267.22
2022-12-13T01:04:54.985Z,99258.88
2022-12-13T01:07:21.804Z,99256.09
2022-12-13T01:09:48.852Z,99260.00
2022-12-13T01:12:15.906Z,99256.41
2022-12-13T01:14:43.015Z,99249.97
2022-12-13T01:17:10.243Z,99251.09
2022-12-13T01:19:37.187Z,99249.97
2022-12-13T01:22:07.085Z,99249.81
2022-12-13T01:24:34.596Z,99260.75
2022-12-13T01:27:01.362Z,99260.44
2022-12-13T01:29:28.688Z,99252.41
2022-12-13T01:31:56.493Z,99253.91
2022-12-13T01:34:26.533Z,99256.16
2022-12-13T01:36:57.933Z,99257.91
2022-12-13T01:39:27.830Z,99257.06
2022-12-13T01:41:56.508Z,99247.69
2022-12-13T01:45:04.746Z,99254.16
2022-12-13T01:47:40.973Z,99245.91
2022-12-13T01:50:13.556Z,99246.44
2022-12-13T01:52:43.238Z,99240.34
2022-12-13T01:55:15.423Z,99241.03
2022-12-13T01:57:47.054Z,99243.09
2022-12-13T02:00:16.188Z,99242.00
2022-12-13T02:02:44.858Z,99237.59
2022-12-13T02:05:22.604Z,99243.38
2022-12-13T02:07:51.106Z,99247.97
2022-12-13T02:10:19.903Z,99241.28
2022-12-13T02:12:47.042Z,99244.44
2022-12-13T02:15:18.603Z,99239.75
2022-12-13T02:18:15.398Z,99236.63
2022-12-13T02:21:09.484Z,99222.72
2022-12-13T02:24:10.863Z,99231.59
2022-12-13T02:27:00.790Z,99231.47
2022-12-13T02:30:16.038Z,99227.63
2022-12-13T02:33:04.531Z,99234.88
2022-12-13T02:35:43.291Z,99222.41
2022-12-13T02:38:24.839Z,99230.94
2022-12-13T02:41:04.847Z,99224.25
2022-12-13T02:43:45.221Z,99216.31
2022-12-13T02:46:17.198Z,99215.22
2022-12-13T02:48:51.104Z,99219.50
2022-12-13T02:51:20.218Z,99209.94
2022-12-13T02:53:47.104Z,99218.19
2022-12-13T02:56:14.055Z,99223.56
2022-12-13T02:58:47.889Z,99225.75
2022-12-13T03:01:48.937Z,99222.41
2022-12-13T03:04:35.905Z,99228.03
2022-12-13T03:07:15.878Z,99230.81
2022-12-13T03:09:58.265Z,99234.03
2022-12-13T03:12:38.737Z,99222.28
2022-12-13T03:15:18.501Z,99224.53
2022-12-13T03:17:53.432Z,99211.69
2022-12-13T03:20:26.991Z,99210.78
2022-12-13T03:22:55.726Z,99211.78
2022-12-13T03:25:31.711Z,99219.69
2022-12-13T03:28:01.107Z,99205.13
2022-12-13T03:30:29.105Z,99200.69
2022-12-13T03:32:55.832Z,99200.88
2022-12-13T03:35:24.754Z,99202.72
2022-12-13T03:38:01.982Z,99203.75
2022-12-13T03:40:30.633Z,99191.81
2022-12-13T03:42:57.941Z,99197.63
2022-12-13T03:45:24.696Z,99195.59
2022-12-13T03:47:51.704Z,99196.13
2022-12-13T03:50:26.553Z,99195.44
2022-12-13T03:53:01.137Z,99190.84
2022-12-13T03:55:29.167Z,99181.66
2022-12-13T03:57:56.606Z,99184.44
2022-12-13T04:00:23.575Z,99186.94
2022-12-13T04:02:50.361Z,99177.53
2022-12-13T04:05:17.995Z,99167.19
2022-12-13T04:07:48.331Z,99174.84
2022-12-13T04:10:25.977Z,99183.28
2022-12-13T04:12:54.591Z,99184.25
2022-12-13T04:15:27.733Z,99187.44
2022-12-13T04:17:54.556Z,99188.81
2022-12-13T04:20:21.629Z,99192.44
2022-12-13T04:22:48.639Z,99196.03
2022-12-13T04:25:17.410Z,99188.28
2022-12-13T04:27:45.438Z,99186.03
2022-12-13T04:30:13.030Z,99187.94
2022-12-13T04:32:39.833Z,99176.84
2022-12-13T04:35:07.461Z,99180.19
2022-12-13T04:37:34.201Z,99180.16
2022-12-13T04:40:01.362Z,99182.53
2022-12-13T04:42:29.784Z,99182.53
2022-12-13T04:44:56.668Z,99178.06
2022-12-13T04:47:23.580Z,99175.28
2022-12-13T04:49:50.576Z,99173.41
2022-12-13T04:52:22.560Z,99176.38
2022-12-13T04:54:55.538Z,99177.06
2022-12-13T04:57:24.032Z,99170.38
2022-12-13T04:59:53.271Z,99169.38
2022-12-13T05:02:23.599Z,99170.91
2022-12-13T05:04:53.838Z,99171.34
2022-12-13T05:07:23.853Z,99172.19
2022-12-13T05:09:51.149Z,99169.97
2022-12-13T05:12:22.513Z,99165.22
2022-12-13T05:14:50.798Z,99172.41
2022-12-13T05:17:19.471Z,99172.13
2022-12-13T05:19:46.358Z,99177.16
2022-12-13T05:22:19.178Z,99168.66
2022-12-13T05:24:46.917Z,99170.91
2022-12-13T05:27:23.980Z,99169.25
2022-12-13T05:30:03.935Z,99171.16
2022-12-13T05:32:44.043Z,99170.78
2022-12-13T05:35:12.958Z,99177.56
2022-12-13T05:37:40.003Z,99164.41
2022-12-13T05:40:10.520Z,99165.56
2022-12-13T05:42:37.781Z,99164.97
2022-12-13T05:45:07.733Z,99163.94
2022-12-13T05:47:35.891Z,99165.00
2022-12-13T05:50:04.568Z,99166.00
2022-12-13T05:52:31.448Z,99164.75
2022-12-13T05:55:01.003Z,99169.09
2022-12-13T05:57:28.894Z,99159.22
2022-12-13T05:59:56.451Z,99157.56
2022-12-13T06:02:23.694Z,99152.97
2022-12-13T06:04:52.403Z,99154.28
2022-12-13T06:07:19.132Z,99159.03
2022-12-13T06:09:45.982Z,99161.22
2022-12-13T06:12:32.389Z,99161.34
2022-12-13T06:15:01.354Z,99166.75
2022-12-13T06:17:31.542Z,99164.94
2022-12-13T06:20:03.689Z,99173.13
2022-12-13T06:22:50.780Z,99168.53
2022-12-13T06:25:30.197Z,99155.22
2022-12-13T06:27:58.863Z,99159.56
2022-12-13T06:30:27.975Z,99159.50
2022-12-13T06:32:55.029Z,99152.44
2022-12-13T06:35:28.045Z,99150.72
2022-12-13T06:38:01.139Z,99158.44
2022-12-13T06:40:29.088Z,99156.78
2022-12-13T06:42:56.017Z,99165.69
2022-12-13T06:45:24.270Z,99167.88
2022-12-13T06:47:51.105Z,99174.31
2022-12-13T06:50:18.129Z,99170.06
2022-12-13T06:52:47.322Z,99170.94
2022-12-13T06:55:14.789Z,99171.53
2022-12-13T06:57:51.349Z,99173.91
2022-12-13T07:00:22.292Z,99166.84
2022-12-13T07:02:56.065Z,99167.91
2022-12-13T07:05:23.690Z,99170.00
2022-12-13T07:07:52.030Z,99166.13
2022-12-13T07:10:21.829Z,99175.16
2022-12-13T07:12:49.998Z,99163.69
2022-12-13T07:15:16.900Z,99164.06
2022-12-13T07:17:44.324Z,99169.09
2022-12-13T07:20:12.251Z,99183.34
2022-12-13T07:22:46.791Z,99183.06
2022-12-13T07:25:27.525Z,99179.06
2022-12-13T07:28:01.285Z,99180.25
2022-12-13T07:30:30.493Z,99183.19
2022-12-13T07:32:57.221Z,99188.97
2022-12-13T07:35:24.019Z,99188.31
2022-12-13T07:37:50.790Z,99187.53
2022-12-13T07:40:22.341Z,99201.88
2022-12-13T07:42:50.662Z,99198.16
2022-12-13T07:45:18.889Z,99195.28
2022-12-13T07:47:45.984Z,99197.78
2022-12-13T07:50:24.807Z,99196.91
2022-12-13T07:52:53.111Z,99212.47
2022-12-13T07:55:23.200Z,99206.66
2022-12-13T07:58:06.484Z,99205.00
2022-12-13T08:00:34.175Z,99209.59
2022-12-13T08:03:01.769Z,99214.00
2022-12-13T08:05:28.878Z,99205.47
2022-12-13T08:08:23.020Z,99206.91
2022-12-13T08:11:04.141Z,99214.44
2022-12-13T08:13:31.541Z,99204.84
2022-12-13T08:15:59.507Z,99208.03
2022-12-13T08:18:26.534Z,99210.34
2022-12-13T08:20:58.213Z,99209.69
2022-12-13T08:23:25.034Z,99213.69
2022-12-13T08:25:52.741Z,99198.47
2022-12-13T08:28:23.892Z,99209.03
2022-12-13T08:30:51.546Z,99197.03
2022-12-13T08:33:20.934Z,99195.09
2022-12-13T08:35:48.716Z,99196.31
2022-12-13T08:38:22.632Z,99193.81
2022-12-13T08:40:51.777Z,99192.66
2022-12-13T08:43:18.979Z,99207.53
2022-12-13T08:45:54.242Z,99220.31
2022-12-13T08:48:28.654Z,99215.50
2022-12-13T08:51:01.497Z,99210.41
2022-12-13T08:53:32.792Z,99197.91
2022-12-13T08:56:12.389Z,99190.22
2022-12-13T08:58:40.096Z,99199.34
2022-12-13T09:01:09.332Z,99203.63
2022-12-13T09:03:36.850Z,99190.63
2022-12-13T09:06:09.369Z,99197.25
2022-12-13T09:08:36.749Z,99202.31
2022-12-13T09:11:10.683Z,99198.94
2022-12-13T09:13:48.391Z,99206.75
2022-12-13T09:16:23.534Z,99205.31
2022-12-13T09:18:55.512Z,99201.88
2022-12-13T09:21:30.863Z,99200.03
2022-12-13T09:24:02.001Z,99194.31
2022-12-13T09:26:29.352Z,99185.50
2022-12-13T09:29:11.012Z,99188.31
2022-12-13T09:31:40.168Z,99190.06
2022-12-13T09:34:07.244Z,99182.22
2022-12-13T09:36:34.110Z,99187.94
2022-12-13T09:39:01.198Z,99183.84
2022-12-13T09:41:40.809Z,99189.00
2022-12-13T09:44:32.168Z,99192.72
2022-12-13T09:47:14.194Z,99185.16
2022-12-13T09:49:51.802Z,99191.31
2022-12-13T09:52:24.374Z,99193.63
2022-12-13T09:54:55.555Z,99195.75
2022-12-13T09:57:32.889Z,99186.38
2022-12-13T10:00:05.216Z,99189.31
2022-12-13T10:02:45.213Z,99186.38
2022-12-13T10:05:22.926Z,99175.75
2022-12-13T10:07:57.197Z,99175.72
2022-12-13T10:10:25.905Z,99169.59
2022-12-13T10:13:15.678Z,99170.00
2022-12-13T10:15:50.160Z,99165.75
2022-12-13T10:18:35.413Z,99169.72
2022-12-13T10:21:10.244Z,99158.00
2022-12-13T10:24:06.763Z,99163.06
2022-12-13T10:26:25.244Z,99171.72
2022-12-13T10:29:04.417Z,99156.38
2022-12-13T10:31:41.938Z,99148.06
2022-12-13T10:34:23.441Z,99144.63
2022-12-13T10:36:51.771Z,99140.66
2022-12-13T10:39:37.086Z,99136.28
2022-12-13T10:42:06.651Z,99125.50
2022-12-13T10:44:33.526Z,99122.91
2022-12-13T10:47:17.005Z,99127.66
2022-12-13T10:49:59.479Z,99126.88
2022-12-13T10:52:31.910Z,99138.19
2022-12-13T10:55:02.574Z,99145.56
2022-12-13T10:57:30.815Z,99137.00
2022-12-13T10:59:57.941Z,99129.22
2022-12-13T11:02:35.816Z,99117.13
2022-12-13T11:05:36.451Z,99110.44
2022-12-13T11:08:15.460Z,99122.13
2022-12-13T11:10:43.234Z,99108.88
2022-12-13T11:13:29.267Z,99113.50
2022-12-13T11:15:56.776Z,99104.28
2022-12-13T11:18:27.330Z,99097.03
2022-12-13T11:21:01.483Z,99104.19
2022-12-13T11:23:33.717Z,99098.06
2022-12-13T11:26:09.316Z,99097.06
2022-12-13T11:29:05.575Z,99097.41
2022-12-13T11:31:46.462Z,99083.50
2022-12-13T11:34:28.629Z,99080.97
2022-12-13T11:37:15.078Z,99092.44
2022-12-13T11:39:49.787Z,99091.56
2022-12-13T11:42:28.364Z,99101.16
2022-12-13T11:45:07.820Z,99097.19
2022-12-13T11:47:43.966Z,99096.94
2022-12-13T11:50:33.637Z,99090.47
2022-12-13T11:53:22.583Z,99087.91
2022-12-13T11:55:59.230Z,99085.41
2022-12-13T12:01:38.164Z,99073.69
2022-12-13T12:04:23.213Z,99069.31
2022-12-13T12:07:24.498Z,99069.88
2022-12-13T12:09:59.060Z,99070.88
2022-12-13T12:12:34.494Z,99072.66
2022-12-13T12:15:16.399Z,99066.16
2022-12-13T12:17:44.251Z,99054.72
2022-12-13T12:20:24.035Z,99057.81
2022-12-13T12:23:08.871Z,99058.44
2022-12-13T12:25:47.605Z,99065.31
2022-12-13T12:28:32.600Z,99063.06
2022-12-13T12:31:14.695Z,99048.41
2022-12-13T12:33:53.846Z,99054.06
2022-12-13T12:36:46.780Z,99056.13
2022-12-13T12:39:34.061Z,99058.72
2022-12-13T12:42:44.788Z,99066.34
2022-12-13T12:46:01.030Z,99065.44
2022-12-13T12:49:03.565Z,99075.69
2022-12-13T12:51:45.389Z,99065.00
2022-12-13T12:54:42.658Z,99049.75
2022-12-13T12:57:23.502Z,99046.25
2022-12-13T13:00:07.076Z,99048.41
2022-12-13T13:02:45.911Z,99039.75
2022-12-13T13:05:24.187Z,99032.25
2022-12-13T13:08:02.600Z,99027.13
2022-12-13T13:10:31.021Z,99020.41
2022-12-13T13:13:12.242Z,99024.78
2022-12-13T13:15:57.350Z,99025.63
2022-12-13T13:18:50.639Z,99023.34
2022-12-13T13:21:34.758Z,99023.34
2022-12-13T13:24:24.843Z,99025.69
2022-12-13T13:26:55.406Z,99023.19
2022-12-13T13:29:37.094Z,99031.00
2022-12-13T13:32:31.375Z,99036.97
2022-12-13T13:35:52.053Z,99040.44
2022-12-13T13:38:49.815Z,99034.56
2022-12-13T13:41:54.809Z,99032.13
2022-12-13T13:44:56.447Z,99031.75
2022-12-13T13:47:41.781Z,99029.94
2022-12-13T13:51:09.125Z,99027.09
2022-12-13T13:54:15.865Z,99041.81
2022-12-13T13:58:08.199Z,99045.31
2022-12-13T14:00:56.661Z,99043.09
2022-12-13T14:04:18.008Z,99040.81
2022-12-13T14:07:27.134Z,99048.41
2022-12-13T14:10:26.341Z,99042.47
2022-12-13T14:13:55.657Z,99038.31
2022-12-13T14:17:27.661Z,99038.47
2022-12-13T14:21:03.471Z,99049.06
2022-12-13T14:23:58.946Z,99038.78
2022-12-13T14:26:45.950Z,99033.38
2022-12-13T14:29:27.560Z,99036.88
2022-12-13T14:31:55.632Z,99036.09
2022-12-13T14:34:26.402Z,99042.34
2022-12-13T14:37:01.153Z,99038.63
2022-12-13T14:39:30.671Z,99042.78
2022-12-13T14:42:00.805Z,99043.94
2022-12-13T14:44:30.370Z,99035.41
2022-12-13T14:47:01.204Z,99043.22
2022-12-13T14:49:31.592Z,99032.63
2022-12-13T14:52:07.292Z,99038.06
2022-12-13T14:54:46.254Z,99032.09
2022-12-13T14:57:18.079Z,99020.47
2022-12-13T14:59:50.178Z,99026.28
2022-12-13T15:02:30.626Z,99026.91
2022-12-13T15:05:00.915Z,99025.81
2022-12-13T15:07:36.353Z,99025.03
2022-12-13T15:10:19.860Z,99021.81
2022-12-13T15:12:47.306Z,99011.13
2022-12-13T15:15:24.817Z,99010.28
2022-12-13T15:18:07.103Z,99000.50
2022-12-13T15:20:41.593Z,99001.66
2022-12-13T15:23:24.087Z,98996.00
2022-12-13T15:26:00.016Z,98995.31
2022-12-13T15:28:31.161Z,98997.94
2022-12-13T15:31:01.092Z,98996.63
2022-12-13T15:33:35.231Z,98987.78
2022-12-13T15:36:14.796Z,98996.13
2022-12-13T15:38:59.848Z,98986.91
2022-12-13T15:41:33.724Z,98978.66
2022-12-13T15:44:07.879Z,98971.03
2022-12-13T15:46:37.397Z,98965.66
2022-12-13T15:49:17.825Z,98965.38
2022-12-13T15:52:01.152Z,98967.69
2022-12-13T15:54:30.504Z,98965.75
2022-12-13T15:57:14.819Z,98964.97
2022-12-13T15:59:43.724Z,98969.97
2022-12-13T16:02:18.741Z,98971.81
2022-12-13T16:04:46.109Z,98977.91
2022-12-13T16:07:23.834Z,98964.66
2022-12-13T16:09:54.687Z,98956.06
2022-12-13T16:12:29.389Z,98958.44
2022-12-13T16:15:28.671Z,98959.28
2022-12-13T16:18:07.370Z,98957.47
2022-12-13T16:20:37.058Z,98951.03
2022-12-13T16:23:08.717Z,98957.97
2022-12-13T16:25:37.509Z,98948.06
2022-12-13T16:28:04.750Z,98943.31
2022-12-13T16:31:12.996Z,98959.66
2022-12-13T16:33:39.919Z,98960.31
2022-12-13T16:36:09.427Z,98949.72
2022-12-13T16:38:38.607Z,98946.06
2022-12-13T16:41:09.511Z,98940.75
2022-12-13T16:43:52.622Z,98945.72
2022-12-13T16:47:12.821Z,98953.56
2022-12-13T16:49:19.257Z,98959.47
2022-12-13T16:51:48.640Z,98949.38
2022-12-13T16:54:17.022Z,98951.84
2022-12-13T16:56:45.849Z,98947.06
2022-12-13T16:59:15.644Z,98939.13
2022-12-13T17:01:43.960Z,98934.84
2022-12-13T17:04:17.813Z,98938.81
2022-12-13T17:06:47.360Z,98943.81
2022-12-13T17:09:14.150Z,98950.25
2022-12-13T17:11:43.385Z,98949.78
2022-12-13T17:14:11.693Z,98949.09
2022-12-13T17:16:38.866Z,98941.16
2022-12-13T17:19:12.296Z,98942.63
2022-12-13T17:21:39.234Z,98937.63
2022-12-13T17:24:06.757Z,98944.81
2022-12-13T17:26:33.836Z,98947.91
2022-12-13T17:29:00.626Z,98942.09
2022-12-13T17:31:35.375Z,98937.63
2022-12-13T17:34:03.664Z,98926.22
2022-12-13T17:36:30.980Z,98921.75
2022-12-13T17:38:57.773Z,98927.81
2022-12-13T17:41:24.601Z,98927.97
2022-12-13T17:43:51.466Z,98922.91
2022-12-13T17:46:19.145Z,98925.91
2022-12-13T17:48:47.629Z,98925.69
2022-12-13T17:51:15.347Z,98931.00
2022-12-13T17:53:44.140Z,98928.56
2022-12-13T17:56:14.645Z,98927.03
2022-12-13T17:58:43.042Z,98919.84
2022-12-13T18:01:12.833Z,98921.53
2022-12-13T18:03:40.606Z,98918.34
2022-12-13T18:06:09.453Z,98921.06
2022-12-13T18:08:38.672Z,98923.91
2022-12-13T18:13:55.550Z,98917.16
2022-12-13T18:16:30.360Z,98917.16
2022-12-13T18:19:03.936Z,98920.50
2022-12-13T18:21:32.418Z,98908.25
2022-12-13T18:23:59.774Z,98909.44
2022-12-13T18:26:27.091Z,98907.78
2022-12-13T18:28:54.174Z,98903.69
2022-12-13T18:31:23.473Z,98900.88
2022-12-13T18:33:53.322Z,98908.97
2022-12-13T18:36:23.221Z,98913.66
2022-12-13T18:38:51.930Z,98915.28
2022-12-13T18:41:21.776Z,98909.84
2022-12-13T18:43:55.334Z,98899.94
2022-12-13T18:46:22.210Z,98909.69
2022-12-13T18:48:49.144Z,98898.13
2022-12-13T18:51:16.275Z,98903.13
2022-12-13T18:53:43.059Z,98897.50
2022-12-13T18:56:18.873Z,98903.47
2022-12-13T18:58:47.559Z,98890.38
2022-12-13T19:01:16.499Z,98885.22
2022-12-13T19:03:45.348Z,98880.56
2022-12-13T19:06:16.894Z,98876.78
2022-12-13T19:08:47.316Z,98867.00
2022-12-13T19:11:16.198Z,98862.41
2022-12-13T19:13:43.181Z,98863.75
2022-12-13T19:16:16.308Z,98858.28
2022-12-13T19:18:43.179Z,98856.31
2022-12-13T19:21:14.778Z,98854.34
2022-12-13T19:23:42.851Z,98843.75
2022-12-13T19:26:12.980Z,98836.13
2022-12-13T19:28:43.642Z,98841.28
2022-12-13T19:31:12.610Z,98841.13
2022-12-13T19:33:40.455Z,98845.25
2022-12-13T19:36:08.175Z,98833.81
2022-12-13T19:38:35.396Z,98827.97
2022-12-13T19:41:08.008Z,98834.44
2022-12-13T19:43:34.899Z,98844.72
2022-12-13T19:46:03.266Z,98835.44
2022-12-13T19:48:30.139Z,98843.25
2022-12-13T19:50:59.329Z,98842.91
2022-12-13T19:53:26.533Z,98830.19
2022-12-13T19:55:54.030Z,98823.59
2022-12-13T19:58:20.935Z,98829.34
2022-12-13T20:00:48.322Z,98828.19
2022-12-13T20:03:16.734Z,98816.75
2022-12-13T20:05:45.795Z,98814.78
2022-12-13T20:08:14.089Z,98820.09
2022-12-13T20:10:41.174Z,98812.13
2022-12-13T20:13:08.044Z,98810.28
2022-12-13T20:15:34.819Z,98804.84
2022-12-13T20:18:02.456Z,98800.72
2022-12-13T20:20:47.059Z,98798.38
2022-12-13T20:23:19.167Z,98787.94
2022-12-13T20:25:47.120Z,98793.25
2022-12-13T20:28:16.382Z,98806.16
2022-12-13T20:30:43.818Z,98799.22
2022-12-13T20:33:13.989Z,98786.31
2022-12-13T20:36:14.787Z,98777.41
2022-12-13T20:38:29.289Z,98767.78
2022-12-13T20:40:59.748Z,98767.13
2022-12-13T20:43:27.300Z,98769.44
2022-12-13T20:45:54.739Z,98768.94
2022-12-13T20:48:21.718Z,98768.13
2022-12-13T20:50:59.382Z,98769.63
2022-12-13T20:53:26.610Z,98769.44
2022-12-13T20:55:56.260Z,98775.75
2022-12-13T20:58:23.098Z,98781.53
2022-12-13T21:00:51.062Z,98769.28
2022-12-13T21:03:18.161Z,98759.19
2022-12-13T21:05:46.633Z,98764.78
2022-12-13T21:08:16.473Z,98770.09
2022-12-13T21:10:43.386Z,98760.81
2022-12-13T21:13:10.290Z,98764.00
2022-12-13T21:15:37.877Z,98773.09
2022-12-13T21:18:05.231Z,98762.84
2022-12-13T21:20:32.182Z,98768.25
2022-12-13T21:22:59.370Z,98760.47
2022-12-13T21:25:27.520Z,98757.13
2022-12-13T21:27:55.312Z,98757.75
2022-12-13T21:30:22.390Z,98745.16
2022-12-13T21:32:52.791Z,98738.22
2022-12-13T21:35:20.228Z,98722.50
2022-12-13T21:37:48.363Z,98727.16
2022-12-13T21:40:15.532Z,98731.63
2022-12-13T21:42:46.395Z,98718.38
2022-12-13T21:45:13.465Z,98724.19
2022-12-13T21:47:40.266Z,98717.56
2022-12-13T21:50:07.932Z,98726.03
2022-12-13T21:52:34.714Z,98726.69
2022-12-13T21:55:22.268Z,98710.63
2022-12-13T21:57:49.664Z,98709.66
2022-12-13T22:00:16.792Z,98709.50
2022-12-13T22:02:43.541Z,98714.66
2022-12-13T22:05:10.453Z,98707.66
2022-12-13T22:07:37.266Z,98700.41
2022-12-13T22:10:06.308Z,98702.22
2022-12-13T22:12:35.796Z,98697.06
2022-12-13T22:15:07.108Z,98684.84
2022-12-13T22:17:36.119Z,98702.53
2022-12-13T22:20:05.881Z,98682.19
2022-12-13T22:22:32.821Z,98665.47
2022-12-13T22:24:59.796Z,98666.31
2022-12-13T22:27:27.080Z,98675.09
2022-12-13T22:29:56.837Z,98671.94
2022-12-13T22:32:27.740Z,98678.06
2022-12-13T22:34:55.303Z,98672.75
2022-12-13T22:37:22.540Z,98666.66
2022-12-13T22:39:50.224Z,98662.16
2022-12-13T22:42:17.251Z,98657.34
2022-12-13T22:44:44.098Z,98663.50
2022-12-13T22:47:11.513Z,98659.84
2022-12-13T22:49:40.000Z,98652.41
2022-12-13T22:52:07.287Z,98642.66
2022-12-13T22:54:34.140Z,98638.00
2022-12-13T22:57:01.016Z,98627.56
2022-12-13T22:59:28.252Z,98615.66
2022-12-13T23:02:01.385Z,98618.31
2022-12-13T23:04:29.622Z,98624.28
2022-12-13T23:06:58.403Z,98628.75
2022-12-13T23:09:25.250Z,98635.03
2022-12-13T23:11:52.100Z,98645.94
2022-12-13T23:14:25.094Z,98636.03
2022-12-13T23:16:52.429Z,98633.88
2022-12-13T23:22:07.654Z,98623.28
2022-12-13T23:24:34.625Z,98624.59
2022-12-13T23:27:01.524Z,98618.97
2022-12-13T23:29:28.416Z,98610.19
2022-12-13T23:31:55.479Z,98613.34
2022-12-13T23:34:22.278Z,98626.44
2022-12-13T23:36:49.109Z,98634.22
2022-12-13T23:39:17.299Z,98616.34
2022-12-13T23:41:44.172Z,98611.03
2022-12-13T23:44:11.270Z,98618.81
2022-12-13T23:46:38.100Z,98609.38
2022-12-13T23:49:06.117Z,98605.25
2022-12-13T23:51:34.688Z,98599.28
2022-12-13T23:54:01.648Z,98598.31
2022-12-13T23:56:29.938Z,98593.34
2022-12-13T23:58:56.773Z,98596.31
